createdAt,value
2022-09-06T00:02:02.576Z,8.60
2022-09-06T00:04:29.026Z,7.53
2022-09-06T00:06:55.420Z,9.05
2022-09-06T00:09:21.829Z,9.25
2022-09-06T00:11:48.217Z,9.10
2022-09-06T00:14:14.611Z,8.02
2022-09-06T00:16:41.120Z,8.25
2022-09-06T00:19:07.543Z,8.45
2022-09-06T00:21:35.582Z,8.50
2022-09-06T00:24:03.857Z,8.63
2022-09-06T00:26:30.294Z,8.20
2022-09-06T00:28:56.697Z,8.18
2022-09-06T00:31:25.716Z,8.20
2022-09-06T00:33:52.480Z,7.85
2022-09-06T00:36:20.054Z,8.52
2022-09-06T00:38:46.474Z,8.05
2022-09-06T00:41:15.217Z,8.48
2022-09-06T00:43:42.659Z,8.75
2022-09-06T00:46:12.054Z,8.02
2022-09-06T00:48:39.827Z,8.75
2022-09-06T00:51:10.421Z,8.88
2022-09-06T00:53:37.574Z,9.80
2022-09-06T00:56:04.384Z,9.55
2022-09-06T00:58:31.018Z,9.05
2022-09-06T01:00:57.463Z,9.32
2022-09-06T01:03:25.415Z,9.35
2022-09-06T01:06:12.332Z,9.32
2022-09-06T01:09:02.113Z,9.43
2022-09-06T01:11:49.429Z,9.27
2022-09-06T01:14:28.939Z,9.90
2022-09-06T01:17:10.675Z,10.25
2022-09-06T01:20:21.932Z,9.05
2022-09-06T01:23:07.237Z,9.82
2022-09-06T01:25:48.094Z,9.90
2022-09-06T01:28:27.719Z,10.25
2022-09-06T01:31:09.066Z,9.77
2022-09-06T01:33:46.034Z,8.55
2022-09-06T01:36:18.346Z,9.30
2022-09-06T01:38:44.808Z,9.02
2022-09-06T01:41:11.331Z,8.93
2022-09-06T01:43:40.941Z,8.82
2022-09-06T01:46:30.431Z,8.40
2022-09-06T01:49:11.830Z,10.15
2022-09-06T01:52:04.528Z,9.18
2022-09-06T01:54:48.448Z,8.30
2022-09-06T02:00:20.148Z,8.15
2022-09-06T02:02:58.593Z,8.45
2022-09-06T02:05:51.157Z,7.95
2022-09-06T02:08:25.556Z,8.73
2022-09-06T02:10:57.972Z,8.57
2022-09-06T02:13:27.605Z,7.38
2022-09-06T02:16:01.989Z,8.32
2022-09-06T02:18:34.471Z,8.82
2022-09-06T02:21:03.414Z,8.02
2022-09-06T02:23:35.877Z,7.97
2022-09-06T02:26:10.520Z,8.45
2022-09-06T02:28:36.986Z,8.48
2022-09-06T02:31:13.082Z,7.60
2022-09-06T02:33:43.792Z,9.48
2022-09-06T02:36:10.982Z,9.32
2022-09-06T02:38:40.632Z,9.52
2022-09-06T02:41:08.131Z,9.48
2022-09-06T02:43:34.676Z,9.40
2022-09-06T02:46:01.255Z,9.30
2022-09-06T02:48:27.995Z,8.98
2022-09-06T02:50:54.538Z,9.90
2022-09-06T02:53:21.027Z,9.27
2022-09-06T02:55:48.715Z,9.98
2022-09-06T02:58:16.190Z,9.77
2022-09-06T03:00:42.597Z,8.80
2022-09-06T03:03:08.985Z,8.93
2022-09-06T03:05:35.491Z,9.15
2022-09-06T03:08:02.166Z,9.73
2022-09-06T03:10:28.637Z,9.35
2022-09-06T03:12:55.052Z,9.20
2022-09-06T03:15:21.613Z,9.35
2022-09-06T03:17:48.014Z,9.27
2022-09-06T03:20:14.668Z,8.88
2022-09-06T03:22:41.491Z,10.45
2022-09-06T03:25:09.743Z,9.10
2022-09-06T03:27:36.851Z,9.25
2022-09-06T03:30:04.841Z,8.73
2022-09-06T03:32:31.252Z,9.32
2022-09-06T03:34:58.066Z,9.20
2022-09-06T03:37:24.464Z,9.30
2022-09-06T03:39:50.967Z,10.13
2022-09-06T03:42:17.454Z,9.70
2022-09-06T03:44:43.868Z,10.05
2022-09-06T03:47:10.442Z,9.68
2022-09-06T03:49:36.867Z,9.65
2022-09-06T03:52:03.875Z,10.32
2022-09-06T03:54:30.847Z,9.40
2022-09-06T03:56:57.618Z,11.60
2022-09-06T03:59:24.023Z,9.68
2022-09-06T04:01:50.491Z,9.38
2022-09-06T04:04:16.903Z,9.48
2022-09-06T04:06:43.351Z,9.85
2022-09-06T04:09:09.915Z,9.85
2022-09-06T04:11:36.419Z,9.75
2022-09-06T04:14:02.867Z,9.50
2022-09-06T04:16:29.413Z,9.07
2022-09-06T04:18:55.897Z,9.10
2022-09-06T04:21:22.318Z,7.97
2022-09-06T04:23:48.822Z,8.68
2022-09-06T04:26:15.237Z,8.90
2022-09-06T04:28:41.663Z,9.32
2022-09-06T04:31:08.206Z,9.45
2022-09-06T04:33:36.382Z,9.98
2022-09-06T04:36:06.197Z,9.45
2022-09-06T04:38:37.179Z,9.60
2022-09-06T04:41:04.532Z,9.48
2022-09-06T04:43:31.170Z,8.82
2022-09-06T04:46:04.001Z,9.57
2022-09-06T04:48:30.926Z,8.85
2022-09-06T04:50:57.371Z,9.35
2022-09-06T04:53:24.971Z,9.10
2022-09-06T04:55:51.484Z,9.20
2022-09-06T04:58:18.041Z,9.30
2022-09-06T05:00:44.937Z,9.13
2022-09-06T05:03:11.376Z,9.00
2022-09-06T05:05:37.881Z,9.75
2022-09-06T05:08:04.295Z,9.27
2022-09-06T05:10:31.010Z,9.38
2022-09-06T05:12:57.427Z,9.25
2022-09-06T05:15:24.883Z,9.80
2022-09-06T05:17:51.276Z,9.80
2022-09-06T05:20:18.418Z,9.57
2022-09-06T05:22:53.156Z,10.10
2022-09-06T05:25:19.583Z,9.07
2022-09-06T05:27:46.000Z,9.77
2022-09-06T05:30:13.136Z,9.80
2022-09-06T05:32:42.458Z,9.80
2022-09-06T05:35:09.639Z,9.63
2022-09-06T05:37:36.041Z,9.82
2022-09-06T05:40:03.059Z,9.73
2022-09-06T05:42:31.827Z,9.35
2022-09-06T05:44:58.238Z,9.70
2022-09-06T05:47:24.661Z,10.32
2022-09-06T05:49:54.471Z,9.55
2022-09-06T05:52:21.302Z,9.60
2022-09-06T05:54:47.699Z,9.45
2022-09-06T05:57:14.574Z,9.73
2022-09-06T05:59:42.852Z,10.20
2022-09-06T06:02:09.753Z,10.05
2022-09-06T06:04:36.497Z,9.13
2022-09-06T06:07:03.457Z,10.30
2022-09-06T06:09:30.087Z,10.30
2022-09-06T06:11:56.534Z,10.70
2022-09-06T06:14:22.962Z,9.88
2022-09-06T06:16:49.988Z,9.27
2022-09-06T06:19:16.499Z,10.38
2022-09-06T06:21:43.700Z,9.80
2022-09-06T06:24:10.878Z,10.55
2022-09-06T06:26:37.837Z,10.35
2022-09-06T06:29:08.008Z,10.30
2022-09-06T06:31:34.440Z,10.18
2022-09-06T06:34:03.669Z,10.57
2022-09-06T06:36:31.651Z,9.55
2022-09-06T06:38:58.564Z,9.57
2022-09-06T06:41:26.863Z,9.40
2022-09-06T06:43:58.077Z,9.18
2022-09-06T06:46:27.583Z,9.50
2022-09-06T06:48:57.191Z,8.93
2022-09-06T06:51:26.563Z,8.32
2022-09-06T06:53:53.064Z,8.18
2022-09-06T06:56:27.774Z,8.52
2022-09-06T06:58:57.727Z,8.43
2022-09-06T07:01:26.258Z,8.93
2022-09-06T07:03:54.408Z,8.40
2022-09-06T07:06:22.460Z,8.02
2022-09-06T07:09:08.503Z,7.35
2022-09-06T07:11:34.915Z,7.57
2022-09-06T07:14:01.356Z,7.57
2022-09-06T07:16:29.934Z,8.00
2022-09-06T07:18:56.443Z,7.40
2022-09-06T07:21:43.139Z,7.45
2022-09-06T07:24:10.291Z,7.47
2022-09-06T07:26:39.406Z,7.88
2022-09-06T07:29:07.456Z,7.55
2022-09-06T07:34:22.196Z,7.68
2022-09-06T07:36:51.587Z,8.35
2022-09-06T07:39:18.086Z,8.50
2022-09-06T07:41:44.496Z,8.25
2022-09-06T07:44:11.095Z,8.30
2022-09-06T07:46:37.558Z,7.78
2022-09-06T07:49:05.373Z,8.25
2022-09-06T07:51:32.523Z,8.02
2022-09-06T07:54:26.289Z,8.10
2022-09-06T07:56:46.236Z,9.07
2022-09-06T07:59:12.668Z,7.80
2022-09-06T08:01:39.271Z,8.18
2022-09-06T08:04:15.178Z,8.15
2022-09-06T08:09:30.827Z,8.45
2022-09-06T08:11:57.335Z,8.27
2022-09-06T08:14:24.173Z,8.23
2022-09-06T08:16:51.264Z,8.20
2022-09-06T08:19:18.386Z,8.07
2022-09-06T08:21:44.866Z,7.65
2022-09-06T08:24:11.324Z,7.68
2022-09-06T08:26:40.462Z,8.13
2022-09-06T08:29:08.896Z,8.15
2022-09-06T08:31:37.996Z,7.90
2022-09-06T08:34:04.993Z,7.88
2022-09-06T08:36:32.316Z,7.88
2022-09-06T08:39:00.359Z,9.02
2022-09-06T08:41:31.122Z,7.82
2022-09-06T08:46:59.520Z,8.77
2022-09-06T08:49:32.342Z,8.40
2022-09-06T08:52:19.983Z,8.80
2022-09-06T08:54:56.886Z,8.93
2022-09-06T08:58:01.827Z,10.10
2022-09-06T09:00:28.271Z,8.80
2022-09-06T09:03:00.207Z,10.27
2022-09-06T09:05:38.211Z,8.85
2022-09-06T09:08:29.550Z,8.90
2022-09-06T09:11:06.507Z,8.10
2022-09-06T09:13:49.795Z,8.05
2022-09-06T09:16:17.600Z,8.43
2022-09-06T09:18:49.834Z,8.75
2022-09-06T09:21:21.102Z,7.55
2022-09-06T09:23:53.326Z,7.43
2022-09-06T09:26:22.532Z,7.05
2022-09-06T09:29:10.183Z,6.78
2022-09-06T09:31:53.398Z,5.78
2022-09-06T09:34:33.830Z,5.30
2022-09-06T09:37:49.771Z,4.93
2022-09-06T09:40:25.408Z,5.30
2022-09-06T09:42:54.832Z,5.53
2022-09-06T09:45:25.835Z,4.68
2022-09-06T09:47:52.274Z,5.00
2022-09-06T09:50:32.100Z,5.15
2022-09-06T09:53:09.317Z,5.18
2022-09-06T09:55:36.522Z,5.03
2022-09-06T09:58:03.930Z,4.90
2022-09-06T10:00:39.969Z,6.00
2022-09-06T10:03:15.009Z,4.43
2022-09-06T10:05:42.343Z,4.78
2022-09-06T10:08:13.075Z,4.63
2022-09-06T10:10:43.097Z,5.53
2022-09-06T10:13:22.266Z,4.50
2022-09-06T10:15:50.971Z,4.70
2022-09-06T10:18:20.567Z,4.88
2022-09-06T10:20:56.144Z,4.05
2022-09-06T10:26:36.437Z,4.18
2022-09-06T10:29:09.752Z,4.00
2022-09-06T10:31:39.121Z,4.30
2022-09-06T10:34:40.575Z,6.65
2022-09-06T10:37:09.943Z,4.63
2022-09-06T10:40:07.170Z,5.00
2022-09-06T10:42:47.456Z,6.03
2022-09-06T10:45:29.852Z,5.88
2022-09-06T10:48:04.748Z,3.60
2022-09-06T10:50:45.671Z,4.20
2022-09-06T10:53:34.698Z,10.77
2022-09-06T10:56:06.623Z,4.78
2022-09-06T11:02:11.784Z,3.78
2022-09-06T11:07:29.835Z,3.72
2022-09-06T11:10:14.308Z,3.75
2022-09-06T11:13:08.683Z,3.70
2022-09-06T11:15:45.237Z,3.30
2022-09-06T11:18:23.338Z,3.80
2022-09-06T11:20:58.243Z,3.38
2022-09-06T11:23:51.998Z,4.03
2022-09-06T11:26:36.961Z,3.42
2022-09-06T11:29:25.450Z,3.47
2022-09-06T11:32:17.062Z,3.70
2022-09-06T11:34:53.627Z,3.97
2022-09-06T11:37:27.147Z,4.18
2022-09-06T11:42:53.988Z,4.32
2022-09-06T11:45:23.236Z,3.63
2022-09-06T11:47:54.964Z,3.85
2022-09-06T11:50:21.335Z,3.90
2022-09-06T11:53:06.335Z,3.42
2022-09-06T11:55:48.728Z,4.72
2022-09-06T11:58:18.110Z,3.35
2022-09-06T12:00:46.415Z,3.50
2022-09-06T12:06:35.414Z,2.85
2022-09-06T12:09:02.769Z,2.92
2022-09-06T12:11:35.211Z,3.60
2022-09-06T12:14:05.879Z,3.05
2022-09-06T12:16:57.340Z,2.90
2022-09-06T12:19:53.866Z,2.60
2022-09-06T12:22:26.497Z,2.78
2022-09-06T12:24:58.134Z,3.00
2022-09-06T12:27:30.758Z,2.60
2022-09-06T12:30:00.058Z,2.90
2022-09-06T12:32:36.995Z,3.05
2022-09-06T12:37:58.913Z,3.05
2022-09-06T12:40:29.425Z,3.25
2022-09-06T12:42:56.526Z,3.08
2022-09-06T12:45:27.359Z,2.53
2022-09-06T12:48:07.039Z,2.78
2022-09-06T12:50:33.683Z,2.67
2022-09-06T12:53:02.125Z,2.95
2022-09-06T12:55:35.278Z,2.72
2022-09-06T12:58:07.602Z,2.78
2022-09-06T13:00:42.312Z,3.50
2022-09-06T13:03:29.989Z,3.33
2022-09-06T13:05:58.771Z,3.08
2022-09-06T13:08:33.408Z,2.65
2022-09-06T13:11:00.408Z,2.78
2022-09-06T13:13:27.453Z,2.60
2022-09-06T13:15:55.905Z,3.25
2022-09-06T13:18:36.887Z,2.70
2022-09-06T13:21:19.322Z,2.60
2022-09-06T13:23:48.734Z,2.70
2022-09-06T13:26:15.789Z,2.70
2022-09-06T13:28:42.260Z,2.70
2022-09-06T13:31:19.669Z,3.30
2022-09-06T13:33:56.965Z,2.97
2022-09-06T13:36:27.827Z,3.05
2022-09-06T13:38:55.525Z,3.03
2022-09-06T13:41:24.685Z,3.22
2022-09-06T13:44:18.625Z,3.25
2022-09-06T13:46:45.587Z,3.20
2022-09-06T13:49:12.035Z,3.25
2022-09-06T13:51:39.261Z,3.53
2022-09-06T13:54:08.629Z,3.30
2022-09-06T13:56:35.254Z,3.13
2022-09-06T13:59:02.201Z,3.53
2022-09-06T14:01:28.778Z,3.10
2022-09-06T14:03:55.313Z,3.58
2022-09-06T14:06:22.243Z,3.20
2022-09-06T14:09:06.313Z,3.40
2022-09-06T14:11:33.690Z,3.25
2022-09-06T14:14:00.152Z,3.42
2022-09-06T14:16:26.787Z,3.80
2022-09-06T14:18:53.264Z,3.47
2022-09-06T14:21:20.140Z,3.70
2022-09-06T14:23:53.765Z,3.70
2022-09-06T14:26:21.666Z,3.85
2022-09-06T14:28:48.371Z,3.65
2022-09-06T14:31:17.706Z,3.33
2022-09-06T14:33:44.198Z,3.53
2022-09-06T14:36:17.516Z,3.10
2022-09-06T14:38:46.078Z,3.38
2022-09-06T14:41:14.478Z,3.83
2022-09-06T14:43:45.164Z,3.65
2022-09-06T14:46:14.213Z,3.30
2022-09-06T14:48:42.615Z,3.13
2022-09-06T14:51:20.749Z,3.50
2022-09-06T14:53:48.768Z,3.40
2022-09-06T14:56:16.048Z,3.22
2022-09-06T14:58:43.396Z,3.60
2022-09-06T15:01:19.017Z,2.83
2022-09-06T15:03:51.649Z,3.45
2022-09-06T15:06:20.467Z,3.42
2022-09-06T15:08:48.530Z,3.30
2022-09-06T15:11:27.364Z,3.45
2022-09-06T15:13:53.782Z,3.60
2022-09-06T15:16:20.251Z,3.60
2022-09-06T15:18:46.685Z,3.38
2022-09-06T15:21:15.340Z,3.65
2022-09-06T15:23:43.219Z,3.22
2022-09-06T15:26:11.983Z,3.30
2022-09-06T15:28:40.154Z,3.70
2022-09-06T15:31:08.254Z,3.50
2022-09-06T15:33:36.613Z,3.47
2022-09-06T15:36:06.670Z,3.70
2022-09-06T15:38:34.474Z,3.80
2022-09-06T15:41:13.556Z,3.88
2022-09-06T15:43:45.914Z,3.88
2022-09-06T15:46:12.992Z,3.38
2022-09-06T15:48:47.321Z,4.07
2022-09-06T15:51:16.531Z,4.10
2022-09-06T15:53:43.713Z,3.88
2022-09-06T15:56:13.012Z,4.25
2022-09-06T15:58:39.519Z,5.00
2022-09-06T16:01:14.244Z,4.15
2022-09-06T16:03:46.767Z,4.90
2022-09-06T16:06:28.470Z,4.30
2022-09-06T16:09:07.456Z,4.30
2022-09-06T16:11:36.514Z,4.95
2022-09-06T16:14:05.258Z,4.32
2022-09-06T16:16:32.715Z,5.40
2022-09-06T16:19:00.171Z,4.63
2022-09-06T16:21:30.694Z,5.03
2022-09-06T16:24:00.012Z,4.15
2022-09-06T16:26:29.788Z,4.63
2022-09-06T16:28:56.191Z,4.50
2022-09-06T16:31:23.044Z,4.68
2022-09-06T16:33:50.291Z,4.50
2022-09-06T16:36:18.782Z,4.55
2022-09-06T16:38:46.108Z,4.45
2022-09-06T16:41:17.214Z,4.50
2022-09-06T16:43:45.785Z,4.30
2022-09-06T16:46:13.025Z,4.65
2022-09-06T16:48:40.651Z,4.60
2022-09-06T16:51:18.094Z,4.45
2022-09-06T16:53:46.491Z,4.50
2022-09-06T16:56:16.121Z,4.32
2022-09-06T16:58:49.830Z,4.28
2022-09-06T17:01:16.418Z,4.30
2022-09-06T17:03:43.031Z,4.45
2022-09-06T17:06:10.544Z,4.70
2022-09-06T17:08:37.309Z,4.63
2022-09-06T17:11:11.170Z,4.43
2022-09-06T17:13:37.882Z,4.60
2022-09-06T17:16:23.987Z,4.30
2022-09-06T17:18:53.651Z,4.55
2022-09-06T17:21:21.779Z,4.40
2022-09-06T17:23:49.514Z,4.40
2022-09-06T17:26:17.206Z,4.32
2022-09-06T17:28:43.644Z,4.70
2022-09-06T17:31:10.192Z,4.60
2022-09-06T17:33:36.800Z,4.60
2022-09-06T17:36:12.141Z,4.78
2022-09-06T17:38:40.328Z,4.60
2022-09-06T17:41:06.985Z,5.85
2022-09-06T17:43:36.043Z,4.97
2022-09-06T17:46:04.084Z,7.65
2022-09-06T17:48:30.730Z,5.75
2022-09-06T17:51:05.524Z,4.90
2022-09-06T17:53:31.976Z,5.13
2022-09-06T17:55:58.488Z,5.13
2022-09-06T17:58:25.100Z,5.40
2022-09-06T18:00:51.792Z,5.43
2022-09-06T18:03:18.270Z,5.18
2022-09-06T18:05:45.216Z,5.57
2022-09-06T18:08:11.797Z,5.50
2022-09-06T18:10:38.811Z,4.78
2022-09-06T18:13:06.111Z,4.90
2022-09-06T18:15:38.947Z,4.97
2022-09-06T18:18:05.561Z,5.32
2022-09-06T18:20:31.965Z,5.47
2022-09-06T18:22:59.355Z,5.05
2022-09-06T18:25:26.274Z,4.40
2022-09-06T18:27:52.750Z,4.80
2022-09-06T18:30:19.200Z,5.43
2022-09-06T18:32:45.764Z,5.40
2022-09-06T18:35:12.327Z,4.82
2022-09-06T18:37:38.767Z,4.80
2022-09-06T18:40:06.595Z,4.93
2022-09-06T18:42:33.754Z,5.20
2022-09-06T18:45:00.177Z,4.70
2022-09-06T18:47:26.649Z,5.20
2022-09-06T18:49:53.134Z,5.07
2022-09-06T18:52:20.780Z,4.63
2022-09-06T18:54:49.191Z,4.88
2022-09-06T18:57:17.152Z,5.15
2022-09-06T18:59:44.365Z,5.07
2022-09-06T19:02:11.267Z,4.53
2022-09-06T19:04:37.775Z,4.97
2022-09-06T19:07:04.417Z,5.07
2022-09-06T19:09:31.010Z,5.38
2022-09-06T19:11:57.428Z,5.65
2022-09-06T19:14:23.960Z,5.18
2022-09-06T19:16:53.748Z,5.32
2022-09-06T19:19:21.781Z,5.90
2022-09-06T19:21:48.235Z,5.97
2022-09-06T19:24:16.236Z,28.77
2022-09-06T19:26:44.153Z,6.22
2022-09-06T19:29:16.051Z,5.57
2022-09-06T19:31:43.090Z,6.22
2022-09-06T19:34:09.700Z,6.38
2022-09-06T19:36:36.236Z,6.50
2022-09-06T19:39:06.023Z,9.57
2022-09-06T19:41:36.260Z,5.40
2022-09-06T19:44:05.443Z,6.82
2022-09-06T19:46:32.098Z,5.85
2022-09-06T19:48:58.868Z,5.95
2022-09-06T19:51:25.714Z,5.95
2022-09-06T19:53:54.742Z,5.53
2022-09-06T19:56:24.410Z,6.38
2022-09-06T19:58:55.663Z,6.30
2022-09-06T20:01:22.623Z,6.63
2022-09-06T20:03:49.191Z,6.47
2022-09-06T20:06:15.647Z,6.03
2022-09-06T20:08:42.302Z,5.70
2022-09-06T20:11:12.577Z,5.72
2022-09-06T20:13:39.890Z,6.30
2022-09-06T20:16:08.121Z,6.00
2022-09-06T20:18:35.472Z,6.25
2022-09-06T20:21:02.399Z,5.88
2022-09-06T20:23:30.566Z,6.30
2022-09-06T20:25:59.574Z,6.70
2022-09-06T20:28:26.670Z,6.47
2022-09-06T20:30:53.167Z,6.40
2022-09-06T20:33:19.875Z,6.97
2022-09-06T20:36:03.550Z,7.15
2022-09-06T20:41:05.736Z,6.40
2022-09-06T20:43:35.160Z,6.03
2022-09-06T20:46:04.406Z,7.13
2022-09-06T20:48:40.912Z,6.20
2022-09-06T20:51:14.904Z,6.45
2022-09-06T20:53:41.658Z,6.75
2022-09-06T20:56:17.271Z,6.68
2022-09-06T20:58:49.902Z,7.38
2022-09-06T21:01:22.990Z,7.43
2022-09-06T21:03:52.689Z,8.13
2022-09-06T21:06:20.503Z,7.28
2022-09-06T21:08:47.774Z,7.55
2022-09-06T21:11:14.863Z,7.00
2022-09-06T21:13:41.471Z,7.53
2022-09-06T21:16:08.710Z,7.40
2022-09-06T21:18:35.971Z,6.95
2022-09-06T21:21:04.947Z,8.55
2022-09-06T21:23:34.616Z,8.02
2022-09-06T21:26:03.289Z,7.93
2022-09-06T21:28:33.515Z,8.60
2022-09-06T21:31:11.774Z,8.02
2022-09-06T21:33:40.985Z,7.57
2022-09-06T21:36:12.936Z,8.10
2022-09-06T21:38:42.302Z,7.55
2022-09-06T21:41:10.466Z,8.48
2022-09-06T21:43:37.172Z,8.25
2022-09-06T21:46:11.300Z,7.70
2022-09-06T21:48:38.794Z,7.60
2022-09-06T21:51:09.828Z,7.88
2022-09-06T21:53:37.391Z,8.05
2022-09-06T21:56:05.073Z,7.45
2022-09-06T21:58:32.635Z,7.65
2022-09-06T22:01:00.527Z,7.78
2022-09-06T22:03:28.875Z,7.85
2022-09-06T22:05:55.556Z,7.93
2022-09-06T22:08:23.113Z,7.97
2022-09-06T22:10:49.670Z,7.20
2022-09-06T22:13:17.343Z,8.13
2022-09-06T22:15:43.888Z,7.50
2022-09-06T22:18:11.832Z,7.85
2022-09-06T22:20:38.704Z,7.70
2022-09-06T22:23:06.776Z,8.50
2022-09-06T22:25:33.794Z,8.05
2022-09-06T22:28:00.564Z,8.65
2022-09-06T22:30:27.537Z,7.70
2022-09-06T22:32:53.986Z,8.18
2022-09-06T22:35:21.355Z,8.32
2022-09-06T22:37:47.749Z,7.60
2022-09-06T22:40:14.160Z,8.60
2022-09-06T22:42:40.614Z,8.77
2022-09-06T22:45:07.527Z,8.75
2022-09-06T22:47:33.952Z,8.25
2022-09-06T22:50:00.363Z,8.65
2022-09-06T22:52:26.826Z,8.30
2022-09-06T22:54:53.239Z,8.30
2022-09-06T22:57:19.788Z,8.07
2022-09-06T22:59:46.200Z,8.55
2022-09-06T23:02:12.598Z,7.55
2022-09-06T23:04:39.124Z,8.50
2022-09-06T23:07:06.033Z,7.55
2022-09-06T23:09:32.451Z,7.85
2022-09-06T23:11:58.886Z,7.85
2022-09-06T23:14:27.890Z,7.68
2022-09-06T23:16:54.774Z,7.75
2022-09-06T23:19:21.302Z,7.35
2022-09-06T23:21:47.771Z,8.15
2022-09-06T23:24:14.211Z,8.45
2022-09-06T23:26:40.643Z,8.20
2022-09-06T23:29:07.852Z,7.70
2022-09-06T23:31:35.193Z,7.50
2022-09-06T23:34:02.530Z,8.32
2022-09-06T23:36:29.469Z,8.13
2022-09-06T23:38:56.280Z,8.73
2022-09-06T23:41:23.212Z,7.20
2022-09-06T23:43:49.637Z,7.47
2022-09-06T23:46:16.856Z,7.82
2022-09-06T23:48:43.520Z,8.02
2022-09-06T23:51:11.085Z,8.05
2022-09-06T23:53:37.962Z,9.25
2022-09-06T23:56:05.088Z,9.50
2022-09-06T23:58:31.749Z,8.80
